sensor_id;sensor_type;location;lat;lon;timestamp;pressure;altitude;pressure_sealevel;temperature;humidity
70488;BME280;57976;48.174;16.370;2024-03-23T00:53:06;98667.88;;;14.16;71.34
70488;BME280;57976;48.174;16.370;2024-03-23T00:55:10;98663.77;;;14.15;71.18
70488;BME280;57976;48.174;16.370;2024-03-23T00:57:14;98660.23;;;14.15;71.47
70488;BME280;57976;48.174;16.370;2024-03-23T00:59:19;98651.62;;;14.15;71.76
70488;BME280;57976;48.174;16.370;2024-03-23T01:01:23;98653.27;;;14.17;71.68
70488;BME280;57976;48.174;16.370;2024-03-23T01:03:27;98655.48;;;14.18;71.59
70488;BME280;57976;48.174;16.370;2024-03-23T01:05:32;98657.64;;;14.22;71.65
70488;BME280;57976;48.174;16.370;2024-03-23T01:07:36;98656.42;;;14.25;71.58
70488;BME280;57976;48.174;16.370;2024-03-23T01:09:41;98658.71;;;14.27;71.29
70488;BME280;57976;48.174;16.370;2024-03-23T01:11:45;98656.32;;;14.25;71.07
70488;BME280;57976;48.174;16.370;2024-03-23T01:13:50;98658.16;;;14.26;71.13
70488;BME280;57976;48.174;16.370;2024-03-23T01:15:55;98659.55;;;14.27;71.24
70488;BME280;57976;48.174;16.370;2024-03-23T01:17:59;98660.10;;;14.24;71.19
70488;BME280;57976;48.174;16.370;2024-03-23T01:20:05;98657.62;;;14.20;71.55
70488;BME280;57976;48.174;16.370;2024-03-23T01:22:09;98658.06;;;14.16;71.89
70488;BME280;57976;48.174;16.370;2024-03-23T01:24:14;98658.13;;;14.11;72.25
70488;BME280;57976;48.174;16.370;2024-03-23T01:26:18;98658.40;;;14.04;72.53
70488;BME280;57976;48.174;16.370;2024-03-23T01:28:23;98656.92;;;13.97;73.05
70488;BME280;57976;48.174;16.370;2024-03-23T01:30:27;98660.61;;;13.95;73.56
70488;BME280;57976;48.174;16.370;2024-03-23T01:32:31;98656.73;;;13.93;73.86
70488;BME280;57976;48.174;16.370;2024-03-23T01:34:36;98654.81;;;13.94;74.15
70488;BME280;57976;48.174;16.370;2024-03-23T01:36:44;98655.98;;;13.92;74.06
70488;BME280;57976;48.174;16.370;2024-03-23T01:38:48;98649.23;;;13.90;74.11
70488;BME280;57976;48.174;16.370;2024-03-23T01:40:58;98646.45;;;13.91;74.53
70488;BME280;57976;48.174;16.370;2024-03-23T01:43:06;98642.07;;;13.93;74.51
70488;BME280;57976;48.174;16.370;2024-03-23T01:45:12;98641.94;;;13.99;74.56
70488;BME280;57976;48.174;16.370;2024-03-23T01:47:19;98642.64;;;14.03;74.36
70488;BME280;57976;48.174;16.370;2024-03-23T01:49:24;98637.34;;;14.07;74.22
70488;BME280;57976;48.174;16.370;2024-03-23T01:51:29;98635.18;;;14.09;74.15
70488;BME280;57976;48.174;16.370;2024-03-23T01:53:33;98632.89;;;14.13;74.07
70488;BME280;57976;48.174;16.370;2024-03-23T01:55:38;98627.05;;;14.13;74.05
70488;BME280;57976;48.174;16.370;2024-03-23T01:57:46;98622.25;;;14.16;73.82
70488;BME280;57976;48.174;16.370;2024-03-23T01:59:50;98620.18;;;14.18;73.92
70488;BME280;57976;48.174;16.370;2024-03-23T02:01:59;98613.40;;;14.19;73.98
70488;BME280;57976;48.174;16.370;2024-03-23T02:04:04;98615.63;;;14.22;73.99
70488;BME280;57976;48.174;16.370;2024-03-23T02:06:09;98611.90;;;14.23;74.09
70488;BME280;57976;48.174;16.370;2024-03-23T02:08:13;98613.77;;;14.25;73.77
70488;BME280;57976;48.174;16.370;2024-03-23T02:10:18;98612.91;;;14.28;73.83
70488;BME280;57976;48.174;16.370;2024-03-23T02:12:23;98612.42;;;14.32;73.73
70488;BME280;57976;48.174;16.370;2024-03-23T02:14:27;98613.03;;;14.34;73.55
70488;BME280;57976;48.174;16.370;2024-03-23T02:16:31;98610.25;;;14.35;73.55
70488;BME280;57976;48.174;16.370;2024-03-23T02:18:36;98604.90;;;14.37;73.23
70488;BME280;57976;48.174;16.370;2024-03-23T02:20:41;98601.55;;;14.36;73.33
70488;BME280;57976;48.174;16.370;2024-03-23T02:22:45;98594.99;;;14.35;73.50
70488;BME280;57976;48.174;16.370;2024-03-23T02:24:49;98591.23;;;14.34;73.44
70488;BME280;57976;48.174;16.370;2024-03-23T02:26:54;98587.38;;;14.35;73.62
70488;BME280;57976;48.174;16.370;2024-03-23T02:28:58;98583.39;;;14.36;73.64
70488;BME280;57976;48.174;16.370;2024-03-23T02:31:03;98578.85;;;14.34;73.26
70488;BME280;57976;48.174;16.370;2024-03-23T02:33:07;98573.94;;;14.35;73.63
70488;BME280;57976;48.174;16.370;2024-03-23T02:35:12;98567.26;;;14.33;73.47
70488;BME280;57976;48.174;16.370;2024-03-23T02:37:16;98564.21;;;14.29;73.48
70488;BME280;57976;48.174;16.370;2024-03-23T02:39:21;98561.42;;;14.26;73.79
70488;BME280;57976;48.174;16.370;2024-03-23T02:41:25;98557.15;;;14.23;74.04
70488;BME280;57976;48.174;16.370;2024-03-23T02:43:32;98552.14;;;14.21;73.94
70488;BME280;57976;48.174;16.370;2024-03-23T02:45:37;98548.64;;;14.20;74.20
70488;BME280;57976;48.174;16.370;2024-03-23T02:47:41;98543.60;;;14.17;74.60
70488;BME280;57976;48.174;16.370;2024-03-23T02:49:45;98540.15;;;14.18;74.80
70488;BME280;57976;48.174;16.370;2024-03-23T02:51:50;98540.46;;;14.22;74.61
70488;BME280;57976;48.174;16.370;2024-03-23T02:53:57;98540.13;;;14.24;74.62
70488;BME280;57976;48.174;16.370;2024-03-23T02:56:02;98537.55;;;14.27;74.85
70488;BME280;57976;48.174;16.370;2024-03-23T02:58:06;98538.23;;;14.30;74.55
70488;BME280;57976;48.174;16.370;2024-03-23T03:00:12;98533.10;;;14.32;74.32
70488;BME280;57976;48.174;16.370;2024-03-23T03:02:17;98532.71;;;14.31;74.31
70488;BME280;57976;48.174;16.370;2024-03-23T03:04:21;98533.45;;;14.30;74.38
70488;BME280;57976;48.174;16.370;2024-03-23T03:06:26;98534.89;;;14.30;74.29
70488;BME280;57976;48.174;16.370;2024-03-23T03:08:34;98536.58;;;14.27;74.22
70488;BME280;57976;48.174;16.370;2024-03-23T03:10:38;98538.61;;;14.27;74.29
70488;BME280;57976;48.174;16.370;2024-03-23T03:12:42;98538.06;;;14.26;74.08
70488;BME280;57976;48.174;16.370;2024-03-23T03:14:46;98536.88;;;14.19;73.97
70488;BME280;57976;48.174;16.370;2024-03-23T03:16:51;98530.88;;;14.09;74.06
70488;BME280;57976;48.174;16.370;2024-03-23T03:18:55;98532.09;;;14.04;74.30
70488;BME280;57976;48.174;16.370;2024-03-23T03:21:00;98535.46;;;14.01;74.27
70488;BME280;57976;48.174;16.370;2024-03-23T03:23:08;98534.44;;;13.94;74.48
70488;BME280;57976;48.174;16.370;2024-03-23T03:25:13;98530.48;;;13.91;74.58
70488;BME280;57976;48.174;16.370;2024-03-23T03:27:17;98532.24;;;13.89;74.92
70488;BME280;57976;48.174;16.370;2024-03-23T03:29:21;98525.39;;;13.88;74.91
70488;BME280;57976;48.174;16.370;2024-03-23T03:31:26;98523.97;;;13.84;74.69
70488;BME280;57976;48.174;16.370;2024-03-23T03:33:30;98525.90;;;13.81;75.05
70488;BME280;57976;48.174;16.370;2024-03-23T03:35:34;98524.02;;;13.78;75.04
70488;BME280;57976;48.174;16.370;2024-03-23T03:37:39;98520.73;;;13.77;75.39
70488;BME280;57976;48.174;16.370;2024-03-23T03:39:43;98513.68;;;13.75;75.49
70488;BME280;57976;48.174;16.370;2024-03-23T03:41:47;98513.27;;;13.73;75.38
70488;BME280;57976;48.174;16.370;2024-03-23T03:43:55;98517.70;;;13.72;75.60
70488;BME280;57976;48.174;16.370;2024-03-23T03:46:00;98515.32;;;13.73;75.48
70488;BME280;57976;48.174;16.370;2024-03-23T03:48:06;98517.14;;;13.76;75.71
70488;BME280;57976;48.174;16.370;2024-03-23T03:50:11;98515.02;;;13.77;75.27
70488;BME280;57976;48.174;16.370;2024-03-23T03:52:15;98515.19;;;13.78;75.37
70488;BME280;57976;48.174;16.370;2024-03-23T03:54:21;98519.88;;;13.76;74.78
70488;BME280;57976;48.174;16.370;2024-03-23T03:56:26;98522.19;;;13.74;74.91
70488;BME280;57976;48.174;16.370;2024-03-23T03:58:30;98525.83;;;13.75;74.96
70488;BME280;57976;48.174;16.370;2024-03-23T04:00:34;98517.52;;;13.74;74.77
70488;BME280;57976;48.174;16.370;2024-03-23T04:02:39;98512.70;;;13.73;74.78
70488;BME280;57976;48.174;16.370;2024-03-23T04:04:44;98509.10;;;13.70;74.67
70488;BME280;57976;48.174;16.370;2024-03-23T04:06:48;98509.56;;;13.68;74.90
70488;BME280;57976;48.174;16.370;2024-03-23T04:08:52;98513.97;;;13.64;74.80
70488;BME280;57976;48.174;16.370;2024-03-23T04:10:57;98516.30;;;13.59;74.84
70488;BME280;57976;48.174;16.370;2024-03-23T04:13:01;98510.58;;;13.57;75.13
70488;BME280;57976;48.174;16.370;2024-03-23T04:15:07;98505.48;;;13.59;75.22
70488;BME280;57976;48.174;16.370;2024-03-23T04:17:11;98503.11;;;13.62;75.17
70488;BME280;57976;48.174;16.370;2024-03-23T04:19:16;98499.75;;;13.65;75.20
70488;BME280;57976;48.174;16.370;2024-03-23T04:21:21;98497.43;;;13.67;75.19
70488;BME280;57976;48.174;16.370;2024-03-23T04:23:29;98495.95;;;13.65;75.07
70488;BME280;57976;48.174;16.370;2024-03-23T04:25:33;98493.55;;;13.62;75.10
70488;BME280;57976;48.174;16.370;2024-03-23T04:27:38;98489.95;;;13.62;75.27
70488;BME280;57976;48.174;16.370;2024-03-23T04:29:42;98489.26;;;13.68;75.65
70488;BME280;57976;48.174;16.370;2024-03-23T04:31:50;98487.80;;;13.74;75.59
70488;BME280;57976;48.174;16.370;2024-03-23T04:33:54;98483.56;;;13.79;75.34
70488;BME280;57976;48.174;16.370;2024-03-23T04:35:59;98485.63;;;13.84;75.13
70488;BME280;57976;48.174;16.370;2024-03-23T04:38:03;98487.48;;;13.89;75.01
70488;BME280;57976;48.174;16.370;2024-03-23T04:40:09;98486.34;;;13.94;74.94
70488;BME280;57976;48.174;16.370;2024-03-23T04:42:15;98485.02;;;13.99;74.65
70488;BME280;57976;48.174;16.370;2024-03-23T04:44:20;98486.08;;;14.03;74.50
70488;BME280;57976;48.174;16.370;2024-03-23T04:46:24;98481.46;;;14.04;74.19
70488;BME280;57976;48.174;16.370;2024-03-23T04:48:28;98478.29;;;14.03;73.91
70488;BME280;57976;48.174;16.370;2024-03-23T04:50:33;98478.67;;;14.00;74.11
70488;BME280;57976;48.174;16.370;2024-03-23T04:52:37;98476.66;;;13.98;74.43
70488;BME280;57976;48.174;16.370;2024-03-23T04:54:41;98469.98;;;14.00;74.41
70488;BME280;57976;48.174;16.370;2024-03-23T04:56:46;98467.89;;;14.00;74.36
70488;BME280;57976;48.174;16.370;2024-03-23T04:58:51;98460.80;;;13.98;74.62
70488;BME280;57976;48.174;16.370;2024-03-23T05:00:56;98457.27;;;13.98;74.53
70488;BME280;57976;48.174;16.370;2024-03-23T05:03:00;98459.65;;;13.97;74.47
70488;BME280;57976;48.174;16.370;2024-03-23T05:05:05;98460.09;;;13.97;74.48
70488;BME280;57976;48.174;16.370;2024-03-23T05:07:10;98457.97;;;13.95;74.43
70488;BME280;57976;48.174;16.370;2024-03-23T05:09:14;98453.02;;;13.97;74.58
70488;BME280;57976;48.174;16.370;2024-03-23T05:11:19;98449.06;;;13.98;74.53
70488;BME280;57976;48.174;16.370;2024-03-23T05:13:23;98443.26;;;13.99;74.67
70488;BME280;57976;48.174;16.370;2024-03-23T05:15:27;98438.32;;;13.99;74.50
70488;BME280;57976;48.174;16.370;2024-03-23T05:17:32;98436.71;;;13.99;74.27
70488;BME280;57976;48.174;16.370;2024-03-23T05:19:36;98433.80;;;13.97;74.34
70488;BME280;57976;48.174;16.370;2024-03-23T05:21:41;98435.69;;;13.92;74.49
70488;BME280;57976;48.174;16.370;2024-03-23T05:23:45;98434.58;;;13.93;74.88
70488;BME280;57976;48.174;16.370;2024-03-23T05:25:49;98432.75;;;13.95;75.18
70488;BME280;57976;48.174;16.370;2024-03-23T05:27:53;98432.59;;;13.96;74.96
70488;BME280;57976;48.174;16.370;2024-03-23T05:29:58;98431.86;;;13.97;74.98
70488;BME280;57976;48.174;16.370;2024-03-23T05:32:02;98432.48;;;13.99;75.05
70488;BME280;57976;48.174;16.370;2024-03-23T05:34:07;98434.64;;;14.00;74.62
70488;BME280;57976;48.174;16.370;2024-03-23T05:36:11;98432.80;;;14.01;74.56
70488;BME280;57976;48.174;16.370;2024-03-23T05:38:15;98434.30;;;14.02;74.58
70488;BME280;57976;48.174;16.370;2024-03-23T05:40:20;98434.39;;;14.07;74.67
70488;BME280;57976;48.174;16.370;2024-03-23T05:42:24;98428.94;;;14.13;74.47
70488;BME280;57976;48.174;16.370;2024-03-23T05:44:29;98433.45;;;14.13;74.34
70488;BME280;57976;48.174;16.370;2024-03-23T05:46:33;98430.26;;;14.12;74.52
70488;BME280;57976;48.174;16.370;2024-03-23T05:48:37;98430.27;;;14.12;74.68
70488;BME280;57976;48.174;16.370;2024-03-23T05:50:41;98425.48;;;14.12;74.62
70488;BME280;57976;48.174;16.370;2024-03-23T05:52:46;98423.81;;;14.11;74.69
70488;BME280;57976;48.174;16.370;2024-03-23T05:54:50;98426.52;;;14.11;74.91
70488;BME280;57976;48.174;16.370;2024-03-23T05:56:57;98428.62;;;14.05;75.24
70488;BME280;57976;48.174;16.370;2024-03-23T05:59:01;98427.52;;;13.96;75.60
70488;BME280;57976;48.174;16.370;2024-03-23T06:01:08;98428.35;;;13.95;76.73
70488;BME280;57976;48.174;16.370;2024-03-23T06:03:13;98429.88;;;13.96;76.87
70488;BME280;57976;48.174;16.370;2024-03-23T06:05:17;98426.63;;;13.99;76.90
70488;BME280;57976;48.174;16.370;2024-03-23T06:07:21;98424.61;;;14.02;76.83
70488;BME280;57976;48.174;16.370;2024-03-23T06:09:26;98426.80;;;14.07;76.52
70488;BME280;57976;48.174;16.370;2024-03-23T06:11:30;98423.05;;;14.09;76.24
70488;BME280;57976;48.174;16.370;2024-03-23T06:13:34;98422.25;;;14.11;76.06
70488;BME280;57976;48.174;16.370;2024-03-23T06:15:39;98423.20;;;14.08;75.40
70488;BME280;57976;48.174;16.370;2024-03-23T06:17:44;98417.28;;;14.07;75.32
70488;BME280;57976;48.174;16.370;2024-03-23T06:19:48;98417.96;;;14.03;75.21
70488;BME280;57976;48.174;16.370;2024-03-23T06:21:53;98407.78;;;14.02;75.46
70488;BME280;57976;48.174;16.370;2024-03-23T06:23:57;98406.92;;;14.05;75.67
70488;BME280;57976;48.174;16.370;2024-03-23T06:26:02;98400.45;;;14.10;75.69
70488;BME280;57976;48.174;16.370;2024-03-23T06:28:06;98395.21;;;14.14;75.33
70488;BME280;57976;48.174;16.370;2024-03-23T06:30:13;98399.06;;;14.17;75.00
70488;BME280;57976;48.174;16.370;2024-03-23T06:32:17;98398.88;;;14.16;74.72
70488;BME280;57976;48.174;16.370;2024-03-23T06:34:21;98394.73;;;14.13;75.33
70488;BME280;57976;48.174;16.370;2024-03-23T06:36:28;98398.91;;;14.12;74.84
70488;BME280;57976;48.174;16.370;2024-03-23T06:38:33;98396.79;;;14.13;74.63
70488;BME280;57976;48.174;16.370;2024-03-23T06:40:38;98393.18;;;14.12;74.04
70488;BME280;57976;48.174;16.370;2024-03-23T06:42:43;98394.36;;;14.11;73.59
70488;BME280;57976;48.174;16.370;2024-03-23T06:44:47;98393.09;;;14.12;73.43
70488;BME280;57976;48.174;16.370;2024-03-23T06:46:51;98391.24;;;14.10;73.20
70488;BME280;57976;48.174;16.370;2024-03-23T06:48:55;98388.50;;;14.13;73.30
70488;BME280;57976;48.174;16.370;2024-03-23T06:51:00;98391.48;;;14.16;73.34
70488;BME280;57976;48.174;16.370;2024-03-23T06:53:04;98390.95;;;14.19;73.20
70488;BME280;57976;48.174;16.370;2024-03-23T06:55:09;98392.79;;;14.24;73.03
70488;BME280;57976;48.174;16.370;2024-03-23T06:57:13;98386.61;;;14.27;72.88
70488;BME280;57976;48.174;16.370;2024-03-23T06:59:18;98389.30;;;14.28;72.52
70488;BME280;57976;48.174;16.370;2024-03-23T07:01:22;98383.98;;;14.27;72.56
70488;BME280;57976;48.174;16.370;2024-03-23T07:03:27;98387.23;;;14.32;72.46
70488;BME280;57976;48.174;16.370;2024-03-23T07:05:31;98382.96;;;14.36;71.91
70488;BME280;57976;48.174;16.370;2024-03-23T07:07:35;98384.95;;;14.34;71.71
70488;BME280;57976;48.174;16.370;2024-03-23T07:09:40;98382.41;;;14.35;71.90
70488;BME280;57976;48.174;16.370;2024-03-23T07:11:44;98385.96;;;14.36;71.70
70488;BME280;57976;48.174;16.370;2024-03-23T07:13:51;98381.83;;;14.40;71.89
70488;BME280;57976;48.174;16.370;2024-03-23T07:15:55;98381.52;;;14.49;71.77
70488;BME280;57976;48.174;16.370;2024-03-23T07:18:00;98383.61;;;14.58;71.24
70488;BME280;57976;48.174;16.370;2024-03-23T07:20:05;98389.95;;;14.63;70.71
70488;BME280;57976;48.174;16.370;2024-03-23T07:22:10;98390.55;;;14.68;70.45
70488;BME280;57976;48.174;16.370;2024-03-23T07:24:14;98381.41;;;14.70;70.04
70488;BME280;57976;48.174;16.370;2024-03-23T07:26:19;98387.61;;;14.74;70.21
70488;BME280;57976;48.174;16.370;2024-03-23T07:28:23;98382.91;;;14.75;69.87
70488;BME280;57976;48.174;16.370;2024-03-23T07:30:28;98385.09;;;14.78;69.75
70488;BME280;57976;48.174;16.370;2024-03-23T07:32:32;98382.27;;;14.80;69.52
70488;BME280;57976;48.174;16.370;2024-03-23T07:34:37;98382.84;;;14.79;70.34
70488;BME280;57976;48.174;16.370;2024-03-23T07:36:41;98377.25;;;14.83;70.87
70488;BME280;57976;48.174;16.370;2024-03-23T07:38:46;98379.29;;;14.86;71.66
70488;BME280;57976;48.174;16.370;2024-03-23T07:41:06;98381.58;;;14.93;70.81
70488;BME280;57976;48.174;16.370;2024-03-23T07:43:10;98376.52;;;14.97;70.16
70488;BME280;57976;48.174;16.370;2024-03-23T07:45:15;98375.71;;;14.97;70.36
70488;BME280;57976;48.174;16.370;2024-03-23T07:47:19;98373.64;;;14.96;70.70
70488;BME280;57976;48.174;16.370;2024-03-23T07:49:24;98366.33;;;14.93;70.23
70488;BME280;57976;48.174;16.370;2024-03-23T07:51:28;98364.20;;;14.91;70.35
70488;BME280;57976;48.174;16.370;2024-03-23T07:53:33;98366.69;;;14.91;70.51
70488;BME280;57976;48.174;16.370;2024-03-23T07:55:38;98367.59;;;14.87;70.35
70488;BME280;57976;48.174;16.370;2024-03-23T07:57:42;98362.34;;;14.82;70.94
70488;BME280;57976;48.174;16.370;2024-03-23T07:59:46;98365.67;;;14.83;71.53
70488;BME280;57976;48.174;16.370;2024-03-23T08:01:51;98362.28;;;14.81;71.83
70488;BME280;57976;48.174;16.370;2024-03-23T08:04:00;98358.66;;;14.79;72.23
70488;BME280;57976;48.174;16.370;2024-03-23T08:06:12;98360.67;;;14.77;73.01
70488;BME280;57976;48.174;16.370;2024-03-23T08:08:16;98355.41;;;14.76;73.11
70488;BME280;57976;48.174;16.370;2024-03-23T08:10:21;98349.17;;;14.75;73.39
70488;BME280;57976;48.174;16.370;2024-03-23T08:12:26;98346.11;;;14.74;73.61
70488;BME280;57976;48.174;16.370;2024-03-23T08:14:30;98342.77;;;14.74;73.87
70488;BME280;57976;48.174;16.370;2024-03-23T08:16:35;98335.71;;;14.74;73.38
70488;BME280;57976;48.174;16.370;2024-03-23T08:18:39;98326.44;;;14.75;72.53
70488;BME280;57976;48.174;16.370;2024-03-23T08:20:47;98322.85;;;14.80;72.09
70488;BME280;57976;48.174;16.370;2024-03-23T08:22:51;98311.88;;;14.86;72.37
70488;BME280;57976;48.174;16.370;2024-03-23T08:24:55;98307.56;;;14.96;71.09
70488;BME280;57976;48.174;16.370;2024-03-23T08:27:00;98299.42;;;14.99;69.61
70488;BME280;57976;48.174;16.370;2024-03-23T08:29:04;98297.55;;;15.02;68.62
70488;BME280;57976;48.174;16.370;2024-03-23T08:31:10;98293.02;;;15.05;68.08
70488;BME280;57976;48.174;16.370;2024-03-23T08:33:14;98289.99;;;15.10;67.18
70488;BME280;57976;48.174;16.370;2024-03-23T08:35:19;98287.66;;;15.20;66.37
70488;BME280;57976;48.174;16.370;2024-03-23T08:37:23;98287.67;;;15.27;66.18
70488;BME280;57976;48.174;16.370;2024-03-23T08:39:28;98284.39;;;15.33;65.46
70488;BME280;57976;48.174;16.370;2024-03-23T08:41:32;98282.30;;;15.39;65.34
70488;BME280;57976;48.174;16.370;2024-03-23T08:43:39;98278.21;;;15.49;65.46
70488;BME280;57976;48.174;16.370;2024-03-23T08:45:44;98275.77;;;15.56;65.40
70488;BME280;57976;48.174;16.370;2024-03-23T08:47:50;98274.29;;;15.65;65.21
70488;BME280;57976;48.174;16.370;2024-03-23T08:49:55;98265.98;;;15.76;64.72
70488;BME280;57976;48.174;16.370;2024-03-23T08:51:59;98267.48;;;15.88;66.37
70488;BME280;57976;48.174;16.370;2024-03-23T08:54:04;98257.72;;;15.97;63.74
70488;BME280;57976;48.174;16.370;2024-03-23T08:56:11;98255.61;;;16.09;63.90
70488;BME280;57976;48.174;16.370;2024-03-23T08:58:16;98250.02;;;16.21;64.09
70488;BME280;57976;48.174;16.370;2024-03-23T09:00:20;98236.54;;;16.36;63.67
70488;BME280;57976;48.174;16.370;2024-03-23T09:02:25;98231.84;;;16.51;62.79
70488;BME280;57976;48.174;16.370;2024-03-23T09:04:29;98226.31;;;16.67;62.25
70488;BME280;57976;48.174;16.370;2024-03-23T09:06:37;98215.02;;;16.80;61.81
70488;BME280;57976;48.174;16.370;2024-03-23T09:08:41;98211.37;;;16.95;61.23
70488;BME280;57976;48.174;16.370;2024-03-23T09:10:46;98202.17;;;17.09;60.45
70488;BME280;57976;48.174;16.370;2024-03-23T09:12:51;98196.02;;;17.25;59.09
70488;BME280;57976;48.174;16.370;2024-03-23T09:14:55;98189.59;;;17.39;57.06
70488;BME280;57976;48.174;16.370;2024-03-23T09:17:03;98181.23;;;17.51;54.90
70488;BME280;57976;48.174;16.370;2024-03-23T09:19:07;98178.09;;;17.63;53.19
70488;BME280;57976;48.174;16.370;2024-03-23T09:21:13;98177.85;;;17.74;54.16
70488;BME280;57976;48.174;16.370;2024-03-23T09:23:18;98173.58;;;17.88;53.50
70488;BME280;57976;48.174;16.370;2024-03-23T09:25:22;98173.20;;;18.02;53.50
70488;BME280;57976;48.174;16.370;2024-03-23T09:27:27;98166.78;;;18.13;53.26
70488;BME280;57976;48.174;16.370;2024-03-23T09:29:31;98157.66;;;18.25;53.30
70488;BME280;57976;48.174;16.370;2024-03-23T09:31:36;98155.48;;;18.38;52.96
70488;BME280;57976;48.174;16.370;2024-03-23T09:33:40;98149.62;;;18.46;52.52
70488;BME280;57976;48.174;16.370;2024-03-23T09:35:45;98148.22;;;18.54;52.30
70488;BME280;57976;48.174;16.370;2024-03-23T09:37:49;98146.56;;;18.67;52.05
70488;BME280;57976;48.174;16.370;2024-03-23T09:39:54;98138.02;;;18.82;52.01
70488;BME280;57976;48.174;16.370;2024-03-23T09:41:59;98132.08;;;18.94;52.17
70488;BME280;57976;48.174;16.370;2024-03-23T09:44:03;98130.08;;;19.06;52.17
70488;BME280;57976;48.174;16.370;2024-03-23T09:46:10;98131.09;;;19.19;51.45
70488;BME280;57976;48.174;16.370;2024-03-23T09:48:14;98124.48;;;19.32;51.29
70488;BME280;57976;48.174;16.370;2024-03-23T09:50:19;98120.46;;;19.46;50.29
70488;BME280;57976;48.174;16.370;2024-03-23T09:52:23;98114.52;;;19.56;50.41
70488;BME280;57976;48.174;16.370;2024-03-23T09:54:28;98106.30;;;19.64;49.70
70488;BME280;57976;48.174;16.370;2024-03-23T09:56:33;98098.46;;;19.73;49.08
70488;BME280;57976;48.174;16.370;2024-03-23T09:58:39;98093.02;;;19.84;49.39
70488;BME280;57976;48.174;16.370;2024-03-23T10:00:44;98081.77;;;19.97;49.02
70488;BME280;57976;48.174;16.370;2024-03-23T10:02:49;98080.58;;;20.08;48.52
70488;BME280;57976;48.174;16.370;2024-03-23T10:04:53;98072.61;;;20.17;48.28
70488;BME280;57976;48.174;16.370;2024-03-23T10:07:12;98070.11;;;20.23;47.46
70488;BME280;57976;48.174;16.370;2024-03-23T10:09:19;98061.23;;;20.31;47.55
70488;BME280;57976;48.174;16.370;2024-03-23T10:11:23;98057.77;;;20.37;47.13
70488;BME280;57976;48.174;16.370;2024-03-23T10:13:28;98056.02;;;20.44;46.38
70488;BME280;57976;48.174;16.370;2024-03-23T10:15:35;98054.33;;;20.49;45.33
70488;BME280;57976;48.174;16.370;2024-03-23T10:17:40;98049.42;;;20.54;45.38
70488;BME280;57976;48.174;16.370;2024-03-23T10:19:44;98047.29;;;20.60;45.34
70488;BME280;57976;48.174;16.370;2024-03-23T10:21:55;98040.05;;;20.65;44.69
70488;BME280;57976;48.174;16.370;2024-03-23T10:24:09;98034.29;;;20.66;44.85
70488;BME280;57976;48.174;16.370;2024-03-23T10:26:18;98033.54;;;20.72;45.08
70488;BME280;57976;48.174;16.370;2024-03-23T10:28:23;98030.52;;;20.77;44.74
70488;BME280;57976;48.174;16.370;2024-03-23T10:30:27;98027.17;;;20.82;45.13
70488;BME280;57976;48.174;16.370;2024-03-23T10:32:32;98027.95;;;20.85;45.39
70488;BME280;57976;48.174;16.370;2024-03-23T10:34:36;98024.64;;;20.90;45.37
70488;BME280;57976;48.174;16.370;2024-03-23T10:36:42;98021.86;;;20.97;44.91
70488;BME280;57976;48.174;16.370;2024-03-23T10:38:47;98015.91;;;21.06;44.67
70488;BME280;57976;48.174;16.370;2024-03-23T10:40:52;98015.06;;;21.14;44.50
70488;BME280;57976;48.174;16.370;2024-03-23T10:42:59;98006.23;;;21.22;44.01
70488;BME280;57976;48.174;16.370;2024-03-23T10:45:05;98000.62;;;21.28;43.56
70488;BME280;57976;48.174;16.370;2024-03-23T10:47:10;97999.21;;;21.37;43.72
70488;BME280;57976;48.174;16.370;2024-03-23T10:49:14;97993.05;;;21.47;43.92
70488;BME280;57976;48.174;16.370;2024-03-23T10:51:18;97985.16;;;21.53;43.48
70488;BME280;57976;48.174;16.370;2024-03-23T10:53:26;97981.88;;;21.59;43.08
70488;BME280;57976;48.174;16.370;2024-03-23T10:55:31;97977.77;;;21.69;43.00
70488;BME280;57976;48.174;16.370;2024-03-23T10:57:40;97975.66;;;21.77;42.36
70488;BME280;57976;48.174;16.370;2024-03-23T10:59:46;97976.91;;;21.85;41.99
70488;BME280;57976;48.174;16.370;2024-03-23T11:01:57;97973.27;;;21.93;41.15
70488;BME280;57976;48.174;16.370;2024-03-23T11:04:02;97975.56;;;21.99;39.82
70488;BME280;57976;48.174;16.370;2024-03-23T11:06:07;97966.51;;;22.01;39.97
70488;BME280;57976;48.174;16.370;2024-03-23T11:08:23;97967.36;;;22.04;39.58
70488;BME280;57976;48.174;16.370;2024-03-23T11:10:33;97964.11;;;22.09;39.04
70488;BME280;57976;48.174;16.370;2024-03-23T11:12:38;97966.88;;;22.20;39.51
70488;BME280;57976;48.174;16.370;2024-03-23T11:14:43;97965.27;;;22.34;39.32
70488;BME280;57976;48.174;16.370;2024-03-23T11:17:09;97959.23;;;22.51;38.84
70488;BME280;57976;48.174;16.370;2024-03-23T11:19:34;97952.89;;;22.72;37.68
70488;BME280;57976;48.174;16.370;2024-03-23T11:21:57;97949.96;;;22.90;35.69
70488;BME280;57976;48.174;16.370;2024-03-23T11:24:15;97947.15;;;22.99;35.99
70488;BME280;57976;48.174;16.370;2024-03-23T11:26:19;97941.54;;;23.03;35.82
70488;BME280;57976;48.174;16.370;2024-03-23T11:28:24;97940.64;;;23.06;35.62
70488;BME280;57976;48.174;16.370;2024-03-23T11:30:29;97939.16;;;23.12;35.83
70488;BME280;57976;48.174;16.370;2024-03-23T11:32:35;97934.68;;;23.19;35.90
70488;BME280;57976;48.174;16.370;2024-03-23T11:34:39;97932.89;;;23.25;35.46
70488;BME280;57976;48.174;16.370;2024-03-23T11:36:44;97938.55;;;23.22;35.09
70488;BME280;57976;48.174;16.370;2024-03-23T11:38:49;97929.54;;;23.13;35.31
70488;BME280;57976;48.174;16.370;2024-03-23T11:40:53;97923.17;;;23.07;35.48
70488;BME280;57976;48.174;16.370;2024-03-23T11:42:59;97917.60;;;22.96;35.34
70488;BME280;57976;48.174;16.370;2024-03-23T11:45:10;97922.96;;;22.82;35.68
70488;BME280;57976;48.174;16.370;2024-03-23T11:47:15;97929.74;;;22.70;35.69